sensor_id;sensor_type;location;lat;lon;timestamp;temperature;humidity
24836;DHT22;12915;57.650;12.044;2023-07-02T01:50:09;18.50;99.90
24836;DHT22;12915;57.650;12.044;2023-07-02T01:52:35;18.50;99.90
24836;DHT22;12915;57.650;12.044;2023-07-02T01:55:01;18.40;99.90
24836;DHT22;12915;57.650;12.044;2023-07-02T01:57:33;18.60;99.90
24836;DHT22;12915;57.650;12.044;2023-07-02T01:59:59;18.70;99.90
24836;DHT22;12915;57.650;12.044;2023-07-02T02:02:25;18.60;99.90
24836;DHT22;12915;57.650;12.044;2023-07-02T02:04:51;18.60;99.90
24836;DHT22;12915;57.650;12.044;2023-07-02T02:07:18;18.70;99.90
24836;DHT22;12915;57.650;12.044;2023-07-02T02:09:45;18.40;99.90
24836;DHT22;12915;57.650;12.044;2023-07-02T04:59:42;18.20;99.90
24836;DHT22;12915;57.650;12.044;2023-07-02T05:22:55;17.90;99.90
24836;DHT22;12915;57.650;12.044;2023-07-02T05:25:24;17.90;99.90
24836;DHT22;12915;57.650;12.044;2023-07-02T05:34:06;18.30;99.90
24836;DHT22;12915;57.650;12.044;2023-07-02T05:36:33;18.40;99.90
24836;DHT22;12915;57.650;12.044;2023-07-02T05:39:18;18.70;99.90
24836;DHT22;12915;57.650;12.044;2023-07-02T05:41:49;19.10;99.90
24836;DHT22;12915;57.650;12.044;2023-07-02T05:44:24;19.00;99.90
24836;DHT22;12915;57.650;12.044;2023-07-02T05:47:02;18.80;99.90
24836;DHT22;12915;57.650;12.044;2023-07-02T06:23:49;19.10;99.90
24836;DHT22;12915;57.650;12.044;2023-07-02T06:26:15;19.20;99.90
24836;DHT22;12915;57.650;12.044;2023-07-02T06:28:43;19.30;99.90
24836;DHT22;12915;57.650;12.044;2023-07-02T06:31:15;19.40;99.90
24836;DHT22;12915;57.650;12.044;2023-07-02T06:34:22;19.50;99.90
24836;DHT22;12915;57.650;12.044;2023-07-02T06:36:56;19.90;99.90
24836;DHT22;12915;57.650;12.044;2023-07-02T06:39:23;19.90;99.90
24836;DHT22;12915;57.650;12.044;2023-07-02T06:41:49;19.80;99.90
24836;DHT22;12915;57.650;12.044;2023-07-02T06:44:20;19.80;99.90
24836;DHT22;12915;57.650;12.044;2023-07-02T06:46:50;19.50;99.90
24836;DHT22;12915;57.650;12.044;2023-07-02T06:49:16;19.50;99.90
24836;DHT22;12915;57.650;12.044;2023-07-02T07:07:21;20.20;99.90
24836;DHT22;12915;57.650;12.044;2023-07-02T07:09:51;20.10;99.90
24836;DHT22;12915;57.650;12.044;2023-07-02T07:12:21;20.00;99.90
24836;DHT22;12915;57.650;12.044;2023-07-02T07:32:56;19.90;99.90
24836;DHT22;12915;57.650;12.044;2023-07-02T07:35:31;19.80;99.90
24836;DHT22;12915;57.650;12.044;2023-07-02T07:41:19;20.20;99.90
24836;DHT22;12915;57.650;12.044;2023-07-02T07:43:49;20.60;99.90
24836;DHT22;12915;57.650;12.044;2023-07-02T07:46:15;20.40;99.90
24836;DHT22;12915;57.650;12.044;2023-07-02T07:48:41;19.90;99.90
24836;DHT22;12915;57.650;12.044;2023-07-02T07:51:10;19.40;99.90
24836;DHT22;12915;57.650;12.044;2023-07-02T07:53:40;19.50;99.90
24836;DHT22;12915;57.650;12.044;2023-07-02T07:59:28;19.40;99.90
24836;DHT22;12915;57.650;12.044;2023-07-02T08:01:54;19.50;99.90
24836;DHT22;12915;57.650;12.044;2023-07-02T08:04:22;19.30;99.90
24836;DHT22;12915;57.650;12.044;2023-07-02T08:07:02;19.50;99.90
24836;DHT22;12915;57.650;12.044;2023-07-02T08:09:29;19.90;99.90
24836;DHT22;12915;57.650;12.044;2023-07-02T08:11:55;20.20;99.90
24836;DHT22;12915;57.650;12.044;2023-07-02T08:14:22;20.10;99.90
24836;DHT22;12915;57.650;12.044;2023-07-02T08:16:48;19.70;99.90
24836;DHT22;12915;57.650;12.044;2023-07-02T08:19:20;19.50;99.90
24836;DHT22;12915;57.650;12.044;2023-07-02T08:21:55;19.70;99.90
24836;DHT22;12915;57.650;12.044;2023-07-02T08:24:22;20.00;99.90
24836;DHT22;12915;57.650;12.044;2023-07-02T08:26:48;19.90;99.90
24836;DHT22;12915;57.650;12.044;2023-07-02T08:29:15;19.80;99.90
24836;DHT22;12915;57.650;12.044;2023-07-02T08:31:46;20.30;99.90
24836;DHT22;12915;57.650;12.044;2023-07-02T08:34:17;20.70;99.90
24836;DHT22;12915;57.650;12.044;2023-07-02T08:36:43;20.50;99.90
24836;DHT22;12915;57.650;12.044;2023-07-02T08:39:09;20.50;99.90
24836;DHT22;12915;57.650;12.044;2023-07-02T08:41:43;20.60;99.90
24836;DHT22;12915;57.650;12.044;2023-07-02T08:44:11;20.40;99.90
24836;DHT22;12915;57.650;12.044;2023-07-02T08:46:44;20.20;99.90
24836;DHT22;12915;57.650;12.044;2023-07-02T08:49:10;20.30;99.90
24836;DHT22;12915;57.650;12.044;2023-07-02T08:51:36;20.30;99.90
24836;DHT22;12915;57.650;12.044;2023-07-02T08:54:05;20.10;99.90
24836;DHT22;12915;57.650;12.044;2023-07-02T08:56:32;20.00;99.90
24836;DHT22;12915;57.650;12.044;2023-07-02T08:59:01;20.40;99.90
24836;DHT22;12915;57.650;12.044;2023-07-02T09:05:02;20.80;99.90
24836;DHT22;12915;57.650;12.044;2023-07-02T09:07:49;20.60;99.90
24836;DHT22;12915;57.650;12.044;2023-07-02T09:10:29;20.20;99.90
24836;DHT22;12915;57.650;12.044;2023-07-02T09:13:06;20.10;99.90
24836;DHT22;12915;57.650;12.044;2023-07-02T09:15:40;20.20;99.90
24836;DHT22;12915;57.650;12.044;2023-07-02T09:18:22;20.10;99.90
24836;DHT22;12915;57.650;12.044;2023-07-02T09:20:57;20.00;99.90
24836;DHT22;12915;57.650;12.044;2023-07-02T09:23:35;19.70;99.90
24836;DHT22;12915;57.650;12.044;2023-07-02T09:26:05;19.40;99.90
24836;DHT22;12915;57.650;12.044;2023-07-02T09:28:31;19.90;99.90
24836;DHT22;12915;57.650;12.044;2023-07-02T09:30:57;19.90;99.90
24836;DHT22;12915;57.650;12.044;2023-07-02T09:33:29;19.70;99.90
24836;DHT22;12915;57.650;12.044;2023-07-02T09:46:19;17.80;99.90
24836;DHT22;12915;57.650;12.044;2023-07-02T09:48:47;17.80;99.90
24836;DHT22;12915;57.650;12.044;2023-07-02T09:51:16;17.80;99.90
24836;DHT22;12915;57.650;12.044;2023-07-02T09:53:50;18.20;99.90
24836;DHT22;12915;57.650;12.044;2023-07-02T09:56:20;18.30;99.90
24836;DHT22;12915;57.650;12.044;2023-07-02T09:58:47;18.30;99.90
24836;DHT22;12915;57.650;12.044;2023-07-02T10:01:13;18.10;99.90
24836;DHT22;12915;57.650;12.044;2023-07-02T10:03:39;18.20;99.90
24836;DHT22;12915;57.650;12.044;2023-07-02T10:06:07;18.30;99.90
24836;DHT22;12915;57.650;12.044;2023-07-02T10:08:57;18.70;99.90
24836;DHT22;12915;57.650;12.044;2023-07-02T10:11:34;19.10;99.90
24836;DHT22;12915;57.650;12.044;2023-07-02T10:14:04;19.10;99.90
24836;DHT22;12915;57.650;12.044;2023-07-02T10:16:30;19.10;99.90
24836;DHT22;12915;57.650;12.044;2023-07-02T10:19:13;19.00;99.90
24836;DHT22;12915;57.650;12.044;2023-07-02T10:21:39;18.90;99.90
24836;DHT22;12915;57.650;12.044;2023-07-02T10:24:15;18.80;99.90
24836;DHT22;12915;57.650;12.044;2023-07-02T10:26:59;18.80;99.90
24836;DHT22;12915;57.650;12.044;2023-07-02T10:29:27;19.20;99.90
24836;DHT22;12915;57.650;12.044;2023-07-02T10:31:55;19.40;99.90
24836;DHT22;12915;57.650;12.044;2023-07-02T10:34:35;20.00;99.90
24836;DHT22;12915;57.650;12.044;2023-07-02T10:37:02;19.80;99.90
24836;DHT22;12915;57.650;12.044;2023-07-02T10:39:30;19.60;99.90
24836;DHT22;12915;57.650;12.044;2023-07-02T10:42:09;19.60;99.90
24836;DHT22;12915;57.650;12.044;2023-07-02T10:44:47;20.00;99.90
24836;DHT22;12915;57.650;12.044;2023-07-02T10:47:13;20.40;99.90
24836;DHT22;12915;57.650;12.044;2023-07-02T10:49:39;20.40;99.90
24836;DHT22;12915;57.650;12.044;2023-07-02T10:52:05;20.50;99.90
24836;DHT22;12915;57.650;12.044;2023-07-02T10:54:48;20.70;99.90
24836;DHT22;12915;57.650;12.044;2023-07-02T10:57:15;20.60;99.90
24836;DHT22;12915;57.650;12.044;2023-07-02T10:59:47;20.30;99.90
24836;DHT22;12915;57.650;12.044;2023-07-02T11:02:14;20.10;99.90
24836;DHT22;12915;57.650;12.044;2023-07-02T11:04:40;20.10;99.90
24836;DHT22;12915;57.650;12.044;2023-07-02T11:07:06;20.60;99.90
24836;DHT22;12915;57.650;12.044;2023-07-02T11:09:32;20.90;99.90
24836;DHT22;12915;57.650;12.044;2023-07-02T11:12:00;20.60;99.90
24836;DHT22;12915;57.650;12.044;2023-07-02T11:14:35;20.10;99.90
24836;DHT22;12915;57.650;12.044;2023-07-02T11:17:06;19.20;99.90
24836;DHT22;12915;57.650;12.044;2023-07-02T11:19:33;19.00;99.90
24836;DHT22;12915;57.650;12.044;2023-07-02T11:21:59;19.30;99.90
24836;DHT22;12915;57.650;12.044;2023-07-02T11:24:32;19.80;99.90
24836;DHT22;12915;57.650;12.044;2023-07-02T11:27:00;19.40;99.90
24836;DHT22;12915;57.650;12.044;2023-07-02T11:29:27;18.80;99.90
24836;DHT22;12915;57.650;12.044;2023-07-02T11:31:53;18.80;99.90
24836;DHT22;12915;57.650;12.044;2023-07-02T11:34:20;19.00;99.90
24836;DHT22;12915;57.650;12.044;2023-07-02T11:36:46;19.30;99.90
24836;DHT22;12915;57.650;12.044;2023-07-02T11:39:12;19.70;99.90
24836;DHT22;12915;57.650;12.044;2023-07-02T11:41:40;20.20;99.90
24836;DHT22;12915;57.650;12.044;2023-07-02T11:44:07;20.30;99.90
24836;DHT22;12915;57.650;12.044;2023-07-02T11:46:33;20.60;99.90
24836;DHT22;12915;57.650;12.044;2023-07-02T11:49:00;21.20;99.90
24836;DHT22;12915;57.650;12.044;2023-07-02T11:51:26;21.50;99.90
24836;DHT22;12915;57.650;12.044;2023-07-02T11:53:52;21.30;99.90
24836;DHT22;12915;57.650;12.044;2023-07-02T11:56:18;21.30;99.90
24836;DHT22;12915;57.650;12.044;2023-07-02T11:58:43;21.40;99.90
24836;DHT22;12915;57.650;12.044;2023-07-02T12:01:09;21.70;99.90
24836;DHT22;12915;57.650;12.044;2023-07-02T12:03:35;21.40;99.90
24836;DHT22;12915;57.650;12.044;2023-07-02T12:06:00;21.30;99.90
24836;DHT22;12915;57.650;12.044;2023-07-02T12:08:26;21.30;99.90
24836;DHT22;12915;57.650;12.044;2023-07-02T12:10:52;21.10;99.90
24836;DHT22;12915;57.650;12.044;2023-07-02T12:13:18;20.00;99.90
24836;DHT22;12915;57.650;12.044;2023-07-02T12:15:47;18.90;99.90
24836;DHT22;12915;57.650;12.044;2023-07-02T12:18:13;18.50;99.90
24836;DHT22;12915;57.650;12.044;2023-07-02T12:20:40;18.80;99.90
24836;DHT22;12915;57.650;12.044;2023-07-02T12:23:06;19.60;99.90
24836;DHT22;12915;57.650;12.044;2023-07-02T12:25:32;19.90;99.90
24836;DHT22;12915;57.650;12.044;2023-07-02T12:27:57;20.00;99.90
24836;DHT22;12915;57.650;12.044;2023-07-02T12:33:45;20.20;99.90
24836;DHT22;12915;57.650;12.044;2023-07-02T12:36:11;20.10;99.90
24836;DHT22;12915;57.650;12.044;2023-07-02T12:38:39;20.30;99.90
24836;DHT22;12915;57.650;12.044;2023-07-02T12:41:05;20.70;99.90
24836;DHT22;12915;57.650;12.044;2023-07-02T12:43:30;20.70;99.90
24836;DHT22;12915;57.650;12.044;2023-07-02T12:45:56;20.60;99.90
24836;DHT22;12915;57.650;12.044;2023-07-02T12:48:22;20.50;99.90
24836;DHT22;12915;57.650;12.044;2023-07-02T12:50:59;20.60;99.90
24836;DHT22;12915;57.650;12.044;2023-07-02T12:53:26;20.90;99.90
24836;DHT22;12915;57.650;12.044;2023-07-02T12:55:52;20.70;99.90
24836;DHT22;12915;57.650;12.044;2023-07-02T12:58:18;20.80;99.90
24836;DHT22;12915;57.650;12.044;2023-07-02T13:00:44;20.80;99.90
24836;DHT22;12915;57.650;12.044;2023-07-02T13:03:13;20.50;99.90
24836;DHT22;12915;57.650;12.044;2023-07-02T13:05:39;19.70;99.90
24836;DHT22;12915;57.650;12.044;2023-07-02T13:08:05;19.30;99.90
24836;DHT22;12915;57.650;12.044;2023-07-02T13:10:33;18.80;99.90
24836;DHT22;12915;57.650;12.044;2023-07-02T13:12:59;18.70;99.90
24836;DHT22;12915;57.650;12.044;2023-07-02T13:15:25;18.90;99.90
24836;DHT22;12915;57.650;12.044;2023-07-02T13:17:52;18.60;99.90
24836;DHT22;12915;57.650;12.044;2023-07-02T13:20:18;18.50;99.90
24836;DHT22;12915;57.650;12.044;2023-07-02T13:22:44;18.60;99.90
24836;DHT22;12915;57.650;12.044;2023-07-02T13:25:10;18.70;99.90
24836;DHT22;12915;57.650;12.044;2023-07-02T13:27:36;19.20;99.90
24836;DHT22;12915;57.650;12.044;2023-07-02T13:30:03;20.00;99.90
24836;DHT22;12915;57.650;12.044;2023-07-02T13:32:29;20.30;99.90
24836;DHT22;12915;57.650;12.044;2023-07-02T13:34:55;20.50;99.90
24836;DHT22;12915;57.650;12.044;2023-07-02T13:37:20;20.60;99.90
24836;DHT22;12915;57.650;12.044;2023-07-02T13:39:47;20.40;99.90
24836;DHT22;12915;57.650;12.044;2023-07-02T13:42:14;20.30;99.90
24836;DHT22;12915;57.650;12.044;2023-07-02T13:44:40;20.10;99.90
24836;DHT22;12915;57.650;12.044;2023-07-02T13:47:06;20.10;99.90
24836;DHT22;12915;57.650;12.044;2023-07-02T13:49:32;20.20;99.90
24836;DHT22;12915;57.650;12.044;2023-07-02T13:51:59;20.40;99.90
24836;DHT22;12915;57.650;12.044;2023-07-02T13:54:24;20.40;99.90
24836;DHT22;12915;57.650;12.044;2023-07-02T13:56:51;21.00;99.90
24836;DHT22;12915;57.650;12.044;2023-07-02T13:59:18;21.20;99.90
24836;DHT22;12915;57.650;12.044;2023-07-02T14:05:07;20.50;99.90
24836;DHT22;12915;57.650;12.044;2023-07-02T14:07:33;20.70;99.90
24836;DHT22;12915;57.650;12.044;2023-07-02T14:09:59;20.80;99.90
24836;DHT22;12915;57.650;12.044;2023-07-02T14:12:25;21.00;99.90
24836;DHT22;12915;57.650;12.044;2023-07-02T14:14:50;21.60;99.90
24836;DHT22;12915;57.650;12.044;2023-07-02T14:17:16;22.50;99.90
24836;DHT22;12915;57.650;12.044;2023-07-02T14:19:43;23.40;99.90
24836;DHT22;12915;57.650;12.044;2023-07-02T14:22:09;23.20;99.90
24836;DHT22;12915;57.650;12.044;2023-07-02T14:24:35;22.80;99.90
24836;DHT22;12915;57.650;12.044;2023-07-02T14:27:00;22.90;99.90
24836;DHT22;12915;57.650;12.044;2023-07-02T14:29:26;23.60;99.90
24836;DHT22;12915;57.650;12.044;2023-07-02T14:31:52;24.50;99.90
24836;DHT22;12915;57.650;12.044;2023-07-02T14:34:18;24.00;99.90
24836;DHT22;12915;57.650;12.044;2023-07-02T14:36:43;22.90;99.90
24836;DHT22;12915;57.650;12.044;2023-07-02T14:39:09;22.30;99.90
24836;DHT22;12915;57.650;12.044;2023-07-02T14:41:35;22.10;99.90
24836;DHT22;12915;57.650;12.044;2023-07-02T14:44:02;21.70;99.90
24836;DHT22;12915;57.650;12.044;2023-07-02T14:46:28;21.20;99.90
24836;DHT22;12915;57.650;12.044;2023-07-02T14:48:54;20.40;99.90
24836;DHT22;12915;57.650;12.044;2023-07-02T14:51:19;20.40;99.90
24836;DHT22;12915;57.650;12.044;2023-07-02T14:53:45;20.10;99.90
24836;DHT22;12915;57.650;12.044;2023-07-02T14:56:11;19.60;99.90
24836;DHT22;12915;57.650;12.044;2023-07-02T14:58:37;19.50;99.90
24836;DHT22;12915;57.650;12.044;2023-07-02T15:01:03;19.20;99.90
24836;DHT22;12915;57.650;12.044;2023-07-02T15:03:29;18.70;99.90
24836;DHT22;12915;57.650;12.044;2023-07-02T15:06:08;19.00;99.90
24836;DHT22;12915;57.650;12.044;2023-07-02T15:15:10;19.20;99.90
24836;DHT22;12915;57.650;12.044;2023-07-02T15:17:36;19.10;99.90
24836;DHT22;12915;57.650;12.044;2023-07-02T15:20:02;20.40;99.90
24836;DHT22;12915;57.650;12.044;2023-07-02T15:22:29;21.50;99.90
24836;DHT22;12915;57.650;12.044;2023-07-02T15:24:55;22.40;99.90
24836;DHT22;12915;57.650;12.044;2023-07-02T15:27:21;21.90;99.90
24836;DHT22;12915;57.650;12.044;2023-07-02T15:29:46;21.10;99.90
24836;DHT22;12915;57.650;12.044;2023-07-02T15:32:12;20.70;99.90
24836;DHT22;12915;57.650;12.044;2023-07-02T15:34:38;20.20;99.90
24836;DHT22;12915;57.650;12.044;2023-07-02T15:37:04;19.80;99.90
24836;DHT22;12915;57.650;12.044;2023-07-02T15:39:30;19.10;99.90
24836;DHT22;12915;57.650;12.044;2023-07-02T15:41:58;18.10;99.90
24836;DHT22;12915;57.650;12.044;2023-07-02T15:44:25;17.90;99.90
24836;DHT22;12915;57.650;12.044;2023-07-02T15:46:51;18.00;99.90
24836;DHT22;12915;57.650;12.044;2023-07-02T15:49:17;18.40;99.90
24836;DHT22;12915;57.650;12.044;2023-07-02T15:51:42;18.50;99.90
24836;DHT22;12915;57.650;12.044;2023-07-02T15:54:09;18.60;99.90
24836;DHT22;12915;57.650;12.044;2023-07-02T15:56:34;18.70;99.90
24836;DHT22;12915;57.650;12.044;2023-07-02T15:59:01;18.50;99.90
24836;DHT22;12915;57.650;12.044;2023-07-02T16:01:27;18.70;99.90
24836;DHT22;12915;57.650;12.044;2023-07-02T16:03:54;19.10;99.90
24836;DHT22;12915;57.650;12.044;2023-07-02T16:06:20;18.40;99.90
24836;DHT22;12915;57.650;12.044;2023-07-02T16:08:46;18.20;99.90
24836;DHT22;12915;57.650;12.044;2023-07-02T16:11:13;17.80;99.90
24836;DHT22;12915;57.650;12.044;2023-07-02T16:13:40;17.70;99.90
24836;DHT22;12915;57.650;12.044;2023-07-02T16:16:08;17.80;99.90
24836;DHT22;12915;57.650;12.044;2023-07-02T16:18:34;17.90;99.90
24836;DHT22;12915;57.650;12.044;2023-07-02T16:21:01;17.90;99.90
24836;DHT22;12915;57.650;12.044;2023-07-02T16:23:27;17.90;99.90
24836;DHT22;12915;57.650;12.044;2023-07-02T16:25:58;18.00;99.90
24836;DHT22;12915;57.650;12.044;2023-07-02T16:28:28;18.20;99.90
24836;DHT22;12915;57.650;12.044;2023-07-02T16:30:53;17.90;99.90
24836;DHT22;12915;57.650;12.044;2023-07-02T16:33:19;17.90;99.90
24836;DHT22;12915;57.650;12.044;2023-07-02T16:39:07;17.80;99.90
24836;DHT22;12915;57.650;12.044;2023-07-02T16:41:34;17.80;99.90
24836;DHT22;12915;57.650;12.044;2023-07-02T16:44:02;17.90;99.90
24836;DHT22;12915;57.650;12.044;2023-07-02T16:46:28;18.10;99.90
24836;DHT22;12915;57.650;12.044;2023-07-02T16:48:54;18.00;99.90
24836;DHT22;12915;57.650;12.044;2023-07-02T16:51:19;17.90;99.90
24836;DHT22;12915;57.650;12.044;2023-07-02T16:53:45;17.90;99.90
24836;DHT22;12915;57.650;12.044;2023-07-02T16:56:11;17.70;99.90
24836;DHT22;12915;57.650;12.044;2023-07-02T16:58:37;17.60;99.90
24836;DHT22;12915;57.650;12.044;2023-07-02T17:01:04;17.60;99.90
24836;DHT22;12915;57.650;12.044;2023-07-02T17:03:30;17.70;99.90
24836;DHT22;12915;57.650;12.044;2023-07-02T17:06:06;17.60;99.90
24836;DHT22;12915;57.650;12.044;2023-07-02T17:08:37;17.20;99.90
24836;DHT22;12915;57.650;12.044;2023-07-02T17:11:05;17.00;99.90
24836;DHT22;12915;57.650;12.044;2023-07-02T17:13:33;17.40;99.90
24836;DHT22;12915;57.650;12.044;2023-07-02T17:15:59;17.40;99.90
24836;DHT22;12915;57.650;12.044;2023-07-02T17:18:24;17.30;99.90
24836;DHT22;12915;57.650;12.044;2023-07-02T17:20:51;17.30;99.90
24836;DHT22;12915;57.650;12.044;2023-07-02T17:23:17;17.10;99.90
24836;DHT22;12915;57.650;12.044;2023-07-02T17:25:43;16.80;99.90
24836;DHT22;12915;57.650;12.044;2023-07-02T17:28:09;16.70;99.90
24836;DHT22;12915;57.650;12.044;2023-07-02T17:30:37;16.90;99.90
24836;DHT22;12915;57.650;12.044;2023-07-02T17:33:05;17.00;99.90
24836;DHT22;12915;57.650;12.044;2023-07-02T17:35:40;17.00;99.90
24836;DHT22;12915;57.650;12.044;2023-07-02T17:38:08;16.90;99.90
24836;DHT22;12915;57.650;12.044;2023-07-02T17:40:39;16.30;99.90
24836;DHT22;12915;57.650;12.044;2023-07-02T17:43:05;16.30;99.90
24836;DHT22;12915;57.650;12.044;2023-07-02T17:45:30;16.30;99.90
24836;DHT22;12915;57.650;12.044;2023-07-02T17:47:56;16.10;99.90
24836;DHT22;12915;57.650;12.044;2023-07-02T17:50:22;16.10;99.90
24836;DHT22;12915;57.650;12.044;2023-07-02T17:52:49;16.20;99.90
24836;DHT22;12915;57.650;12.044;2023-07-02T17:55:15;16.00;99.90
24836;DHT22;12915;57.650;12.044;2023-07-02T17:57:41;15.90;99.90
24836;DHT22;12915;57.650;12.044;2023-07-02T18:00:07;15.90;99.90
24836;DHT22;12915;57.650;12.044;2023-07-02T18:02:34;16.20;99.90
24836;DHT22;12915;57.650;12.044;2023-07-02T18:05:00;16.20;99.90
24836;DHT22;12915;57.650;12.044;2023-07-02T18:07:26;16.00;99.90
24836;DHT22;12915;57.650;12.044;2023-07-02T18:09:52;15.70;99.90
24836;DHT22;12915;57.650;12.044;2023-07-02T18:12:21;15.80;99.90
24836;DHT22;12915;57.650;12.044;2023-07-02T18:14:48;15.80;99.90
24836;DHT22;12915;57.650;12.044;2023-07-02T18:17:15;15.90;99.90
24836;DHT22;12915;57.650;12.044;2023-07-02T18:19:41;15.70;99.90
24836;DHT22;12915;57.650;12.044;2023-07-02T18:22:07;15.70;99.90
24836;DHT22;12915;57.650;12.044;2023-07-02T18:24:36;15.60;99.90
24836;DHT22;12915;57.650;12.044;2023-07-02T18:27:03;15.40;99.90
24836;DHT22;12915;57.650;12.044;2023-07-02T18:29:30;15.70;99.90
24836;DHT22;12915;57.650;12.044;2023-07-02T18:32:00;15.80;99.90
24836;DHT22;12915;57.650;12.044;2023-07-02T18:34:28;15.90;99.90
24836;DHT22;12915;57.650;12.044;2023-07-02T18:40:17;16.00;99.90
24836;DHT22;12915;57.650;12.044;2023-07-02T18:42:48;15.90;99.90
24836;DHT22;12915;57.650;12.044;2023-07-02T18:45:14;16.00;99.90
24836;DHT22;12915;57.650;12.044;2023-07-02T18:47:42;15.90;99.90
24836;DHT22;12915;57.650;12.044;2023-07-02T18:50:08;15.80;99.90
24836;DHT22;12915;57.650;12.044;2023-07-02T18:52:34;15.60;99.90
24836;DHT22;12915;57.650;12.044;2023-07-02T18:55:00;15.60;99.90
24836;DHT22;12915;57.650;12.044;2023-07-02T18:57:25;15.60;99.90
24836;DHT22;12915;57.650;12.044;2023-07-02T18:59:51;15.40;99.90
24836;DHT22;12915;57.650;12.044;2023-07-02T19:02:21;15.40;99.90
24836;DHT22;12915;57.650;12.044;2023-07-02T19:04:52;15.60;99.90
24836;DHT22;12915;57.650;12.044;2023-07-02T19:07:18;15.50;99.90
24836;DHT22;12915;57.650;12.044;2023-07-02T19:09:44;15.50;99.90
24836;DHT22;12915;57.650;12.044;2023-07-02T19:12:10;15.60;99.90
24836;DHT22;12915;57.650;12.044;2023-07-02T19:14:37;15.40;99.90
24836;DHT22;12915;57.650;12.044;2023-07-02T19:17:08;15.40;99.90
24836;DHT22;12915;57.650;12.044;2023-07-02T19:19:37;15.30;99.90
24836;DHT22;12915;57.650;12.044;2023-07-02T19:22:05;15.40;99.90
24836;DHT22;12915;57.650;12.044;2023-07-02T19:24:34;15.20;99.90
24836;DHT22;12915;57.650;12.044;2023-07-02T19:27:01;15.40;99.90
24836;DHT22;12915;57.650;12.044;2023-07-02T19:29:27;15.20;99.90
24836;DHT22;12915;57.650;12.044;2023-07-02T19:31:53;15.10;99.90
24836;DHT22;12915;57.650;12.044;2023-07-02T19:34:19;15.10;99.90
24836;DHT22;12915;57.650;12.044;2023-07-02T19:36:46;14.90;99.90
24836;DHT22;12915;57.650;12.044;2023-07-02T19:39:13;15.00;99.90
24836;DHT22;12915;57.650;12.044;2023-07-02T19:41:39;15.00;99.90
24836;DHT22;12915;57.650;12.044;2023-07-02T19:44:05;14.90;99.90
24836;DHT22;12915;57.650;12.044;2023-07-02T19:46:32;15.00;99.90
24836;DHT22;12915;57.650;12.044;2023-07-02T19:48:58;15.00;99.90
24836;DHT22;12915;57.650;12.044;2023-07-02T19:51:23;15.10;99.90
24836;DHT22;12915;57.650;12.044;2023-07-02T19:53:49;14.90;99.90
24836;DHT22;12915;57.650;12.044;2023-07-02T19:56:15;15.00;99.90
24836;DHT22;12915;57.650;12.044;2023-07-02T19:58:41;15.00;99.90
24836;DHT22;12915;57.650;12.044;2023-07-02T20:01:11;15.10;99.90
24836;DHT22;12915;57.650;12.044;2023-07-02T20:03:37;15.10;99.90
24836;DHT22;12915;57.650;12.044;2023-07-02T20:06:03;15.10;99.90
24836;DHT22;12915;57.650;12.044;2023-07-02T20:08:29;15.00;99.90
24836;DHT22;12915;57.650;12.044;2023-07-02T20:10:55;15.00;99.90
24836;DHT22;12915;57.650;12.044;2023-07-02T20:13:21;15.10;99.90
24836;DHT22;12915;57.650;12.044;2023-07-02T20:15:47;14.90;99.90
24836;DHT22;12915;57.650;12.044;2023-07-02T20:18:13;14.90;99.90
24836;DHT22;12915;57.650;12.044;2023-07-02T20:21:03;15.00;99.90
24836;DHT22;12915;57.650;12.044;2023-07-02T20:23:30;15.00;99.90
24836;DHT22;12915;57.650;12.044;2023-07-02T20:25:56;14.80;99.90
24836;DHT22;12915;57.650;12.044;2023-07-02T20:28:21;15.00;99.90
24836;DHT22;12915;57.650;12.044;2023-07-02T20:30:47;14.90;99.90
24836;DHT22;12915;57.650;12.044;2023-07-02T20:33:13;14.90;99.90
24836;DHT22;12915;57.650;12.044;2023-07-02T20:35:42;14.70;99.90
24836;DHT22;12915;57.650;12.044;2023-07-02T20:38:08;14.70;99.90
24836;DHT22;12915;57.650;12.044;2023-07-02T20:40:35;14.90;99.90
24836;DHT22;12915;57.650;12.044;2023-07-02T20:43:01;14.80;99.90
24836;DHT22;12915;57.650;12.044;2023-07-02T20:45:27;14.70;99.90
24836;DHT22;12915;57.650;12.044;2023-07-02T20:47:56;14.60;99.90
24836;DHT22;12915;57.650;12.044;2023-07-02T20:50:29;14.70;99.90
24836;DHT22;12915;57.650;12.044;2023-07-02T20:52:55;14.60;99.90
24836;DHT22;12915;57.650;12.044;2023-07-02T20:55:22;14.50;99.90
24836;DHT22;12915;57.650;12.044;2023-07-02T20:57:48;14.60;99.90
24836;DHT22;12915;57.650;12.044;2023-07-02T21:00:14;14.60;99.90
24836;DHT22;12915;57.650;12.044;2023-07-02T21:02:43;14.50;99.90
24836;DHT22;12915;57.650;12.044;2023-07-02T21:05:10;14.40;99.90
24836;DHT22;12915;57.650;12.044;2023-07-02T21:07:36;14.40;99.90
24836;DHT22;12915;57.650;12.044;2023-07-02T21:10:04;14.20;99.90
24836;DHT22;12915;57.650;12.044;2023-07-02T21:12:30;14.30;99.90
24836;DHT22;12915;57.650;12.044;2023-07-02T21:14:57;14.30;99.90
24836;DHT22;12915;57.650;12.044;2023-07-02T21:17:22;14.40;99.90
24836;DHT22;12915;57.650;12.044;2023-07-02T21:19:48;14.50;99.90
24836;DHT22;12915;57.650;12.044;2023-07-02T21:22:14;14.40;99.90
24836;DHT22;12915;57.650;12.044;2023-07-02T21:24:40;14.40;99.90
24836;DHT22;12915;57.650;12.044;2023-07-02T21:27:06;14.60;99.90
24836;DHT22;12915;57.650;12.044;2023-07-02T21:29:32;14.70;99.90
24836;DHT22;12915;57.650;12.044;2023-07-02T21:31:58;14.70;99.90
24836;DHT22;12915;57.650;12.044;2023-07-02T21:34:27;14.60;99.90
24836;DHT22;12915;57.650;12.044;2023-07-02T21:37:10;14.60;99.90
24836;DHT22;12915;57.650;12.044;2023-07-02T21:39:36;14.60;99.90
24836;DHT22;12915;57.650;12.044;2023-07-02T21:42:02;14.70;99.90
24836;DHT22;12915;57.650;12.044;2023-07-02T21:44:28;14.70;99.90
24836;DHT22;12915;57.650;12.044;2023-07-02T21:46:53;14.80;99.90
24836;DHT22;12915;57.650;12.044;2023-07-02T21:49:26;14.80;99.90
24836;DHT22;12915;57.650;12.044;2023-07-02T21:52:30;15.00;99.90
24836;DHT22;12915;57.650;12.044;2023-07-02T21:54:56;14.80;99.90
24836;DHT22;12915;57.650;12.044;2023-07-02T21:57:22;14.70;99.90
24836;DHT22;12915;57.650;12.044;2023-07-02T21:59:47;14.90;99.90
24836;DHT22;12915;57.650;12.044;2023-07-02T22:02:14;14.90;99.90
24836;DHT22;12915;57.650;12.044;2023-07-02T22:04:50;14.80;99.90
24836;DHT22;12915;57.650;12.044;2023-07-02T22:07:36;14.80;99.90
24836;DHT22;12915;57.650;12.044;2023-07-02T22:10:01;14.90;99.90
24836;DHT22;12915;57.650;12.044;2023-07-02T22:12:27;15.10;99.90